Alma Lake, Indiana
Current Conditions -  °F | °C
As of 6:53 PM on Friday 21 Nov 2014 (Local Time) from KHUF Reporting Station
Clear Clear  
Wind Chill: 25°   Ceiling: Unl
Heat Index: 30°   Visibility: 10mi
Dew Point: 13°   Wind: 5mph
Humidity: 49%   Direction: 140°SE
Pressure: 30.38"   Gusts: NA
Location:  39.5158°N, 87.1262°W
Report Text: KHUF 212353Z 14004KT 10SM CLR M01/M11 A3038 RMK AO2 SLP296 T10111106 10028 21017 58008
Loading
Personal Weather Stations






























Interactive Weather Map New forecast layout! Learn more

10-Day Weather Forecast

Advertisements
Track Severe Weather on mobile